Time;durP1;ratioP1;P1;durP2;ratioP2;P2;SDS_P1;SDS_P2;PMS_P1;PMS_P2;Temp;Humidity;BMP_temperature;BMP_pressure;BME280_temperature;BME280_humidity;BME280_pressure;Samples;Min_cycle;Max_cycle;Signal;HPM_P1;HPM_P2
2021/07/02 00:00:38;;;;;;;13.23;11.40;;;;;;;;;;5000455;28;20454;-80
2021/07/02 00:03:04;;;;;;;11.45;10.25;;;;;;;;;;5015697;28;20442;-80
2021/07/02 00:05:30;;;;;;;12.50;11.20;;;;;;;;;;5019542;28;20207;-80
2021/07/02 00:07:56;;;;;;;11.23;10.13;;;;;;;;;;4999292;28;20182;-80
2021/07/02 00:10:22;;;;;;;11.90;10.70;;;;;;;;;;5000113;28;20243;-80
2021/07/02 00:12:48;;;;;;;13.10;11.32;;;;;;;;;;4998876;28;20431;-80
2021/07/02 00:15:14;;;;;;;11.10;10.10;;;;;;;;;;5015505;28;20226;-80
2021/07/02 00:17:40;;;;;;;10.63;9.52;;;;;;;;;;5002324;28;20434;-80
2021/07/02 00:20:07;;;;;;;13.00;11.25;;;;;;;;;;5002037;28;20239;-80
2021/07/02 00:22:33;;;;;;;11.45;10.27;;;;;;;;;;4999853;28;20175;-80
2021/07/02 00:25:00;;;;;;;11.50;10.38;;;;;;;;;;4998875;28;20234;-80
2021/07/02 00:27:26;;;;;;;11.55;10.23;;;;;;;;;;5000347;28;20242;-80
2021/07/02 00:29:51;;;;;;;18.10;11.53;;;;;;;;;;5014086;28;25336;-80
2021/07/02 00:32:17;;;;;;;9.73;8.83;;;;;;;;;;4999429;28;20570;-80
2021/07/02 00:34:43;;;;;;;13.43;11.77;;;;;;;;;;5011680;28;20454;-80
2021/07/02 00:37:09;;;;;;;12.27;11.07;;;;;;;;;;4991377;28;20447;-80
2021/07/02 00:39:35;;;;;;;11.20;10.00;;;;;;;;;;5013716;28;20442;-80
2021/07/02 00:42:01;;;;;;;13.98;10.10;;;;;;;;;;5000161;28;20195;-80
2021/07/02 00:44:40;;;;;;;10.50;9.13;;;;;;;;;;5014949;28;20226;-80
2021/07/02 00:47:06;;;;;;;11.13;9.77;;;;;;;;;;5000789;28;20505;-80
2021/07/02 00:49:35;;;;;;;12.50;10.57;;;;;;;;;;5004145;28;20175;-80
2021/07/02 00:52:02;;;;;;;14.93;11.77;;;;;;;;;;5001989;28;20233;-80
2021/07/02 00:54:28;;;;;;;11.77;9.88;;;;;;;;;;5003851;28;20179;-80
2021/07/02 00:56:54;;;;;;;13.18;10.93;;;;;;;;;;5004960;28;20716;-80
2021/07/02 00:59:20;;;;;;;12.48;9.95;;;;;;;;;;5005271;28;20179;-80
2021/07/02 01:01:46;;;;;;;12.15;10.00;;;;;;;;;;5002911;28;20279;-80
2021/07/02 01:04:12;;;;;;;10.73;9.23;;;;;;;;;;5002747;28;20231;-80
2021/07/02 01:06:38;;;;;;;10.82;9.75;;;;;;;;;;5005435;28;20445;-80
2021/07/02 01:09:05;;;;;;;14.53;8.97;;;;;;;;;;5003405;28;20183;-80
2021/07/02 01:11:33;;;;;;;11.75;10.55;;;;;;;;;;5021830;28;20426;-80
2021/07/02 01:13:58;;;;;;;11.50;10.35;;;;;;;;;;5018816;28;20273;-80
2021/07/02 01:16:24;;;;;;;13.43;9.67;;;;;;;;;;5003342;28;20598;-80
2021/07/02 01:18:50;;;;;;;11.43;9.90;;;;;;;;;;5003567;28;20513;-80
2021/07/02 01:21:16;;;;;;;10.57;9.47;;;;;;;;;;5003136;28;20445;-80
2021/07/02 01:23:42;;;;;;;11.55;10.25;;;;;;;;;;5019585;28;20460;-80
2021/07/02 01:26:09;;;;;;;11.05;9.82;;;;;;;;;;5005079;28;20178;-80
2021/07/02 01:28:35;;;;;;;12.52;10.63;;;;;;;;;;5002069;28;20259;-80
2021/07/02 01:31:01;;;;;;;11.57;10.30;;;;;;;;;;5001967;28;20210;-80
2021/07/02 01:33:27;;;;;;;11.43;10.27;;;;;;;;;;5001492;28;20190;-80
2021/07/02 01:35:53;;;;;;;12.53;11.20;;;;;;;;;;5004539;28;20466;-80
2021/07/02 01:38:19;;;;;;;11.17;10.07;;;;;;;;;;5005590;28;20901;-80
2021/07/02 01:40:45;;;;;;;10.75;9.65;;;;;;;;;;5003321;28;20438;-80
2021/07/02 01:43:11;;;;;;;11.27;10.18;;;;;;;;;;5017698;28;20195;-80
2021/07/02 01:45:37;;;;;;;11.52;10.30;;;;;;;;;;5017657;28;20262;-80
2021/07/02 01:48:03;;;;;;;10.07;9.17;;;;;;;;;;5020099;28;20179;-80
2021/07/02 01:50:29;;;;;;;12.77;10.30;;;;;;;;;;5021722;28;20438;-80
2021/07/02 01:52:55;;;;;;;12.90;10.60;;;;;;;;;;5002033;28;20198;-80
2021/07/02 01:55:22;;;;;;;11.82;10.63;;;;;;;;;;5017787;28;20466;-80
2021/07/02 01:57:48;;;;;;;12.07;10.38;;;;;;;;;;5001656;28;20194;-80
2021/07/02 02:00:14;;;;;;;11.77;9.82;;;;;;;;;;5002888;28;20191;-80
2021/07/02 02:02:40;;;;;;;11.02;9.40;;;;;;;;;;5019806;28;20684;-80
2021/07/02 02:05:06;;;;;;;14.20;10.10;;;;;;;;;;5004099;28;20357;-80
2021/07/02 02:07:32;;;;;;;12.18;10.25;;;;;;;;;;5001895;28;20183;-80
2021/07/02 02:10:00;;;;;;;10.93;9.40;;;;;;;;;;5001624;28;20179;-80
2021/07/02 02:12:26;;;;;;;11.43;10.27;;;;;;;;;;4996976;28;20271;-80
2021/07/02 02:14:52;;;;;;;12.50;11.03;;;;;;;;;;5018675;28;20241;-80
2021/07/02 02:17:18;;;;;;;11.32;10.05;;;;;;;;;;5003358;28;20733;-80
2021/07/02 02:19:44;;;;;;;10.40;9.33;;;;;;;;;;5001411;28;20780;-80
2021/07/02 02:22:10;;;;;;;10.90;9.63;;;;;;;;;;5000728;28;20442;-80
2021/07/02 02:24:36;;;;;;;12.25;10.98;;;;;;;;;;5000466;28;20465;-80
2021/07/02 02:27:02;;;;;;;13.32;9.90;;;;;;;;;;5017529;28;20222;-80
2021/07/02 02:29:28;;;;;;;12.00;10.55;;;;;;;;;;5017324;28;20580;-80
2021/07/02 02:31:54;;;;;;;11.63;10.40;;;;;;;;;;5001764;28;20274;-80
2021/07/02 02:34:20;;;;;;;13.07;10.50;;;;;;;;;;5016699;28;20728;-80
2021/07/02 02:36:46;;;;;;;11.98;9.60;;;;;;;;;;5000449;28;20438;-80
2021/07/02 02:39:12;;;;;;;11.73;10.27;;;;;;;;;;5017275;28;20184;-80
2021/07/02 02:41:38;;;;;;;11.90;10.15;;;;;;;;;;5019349;28;20671;-80
2021/07/02 02:44:05;;;;;;;10.77;9.68;;;;;;;;;;5002611;28;20257;-80
2021/07/02 02:46:31;;;;;;;11.57;10.43;;;;;;;;;;5016571;28;20179;-80
2021/07/02 02:48:57;;;;;;;12.45;11.15;;;;;;;;;;5000402;28;20239;-80
2021/07/02 02:51:23;;;;;;;15.43;11.55;;;;;;;;;;4999708;28;20209;-80
2021/07/02 02:53:49;;;;;;;13.68;10.68;;;;;;;;;;5015812;28;20201;-80
2021/07/02 02:56:15;;;;;;;13.98;11.50;;;;;;;;;;5002511;28;20222;-80
2021/07/02 02:58:41;;;;;;;12.53;10.57;;;;;;;;;;5000254;28;20335;-80
2021/07/02 03:01:07;;;;;;;12.90;11.57;;;;;;;;;;5000678;28;20469;-80
2021/07/02 03:03:33;;;;;;;13.30;11.20;;;;;;;;;;5001405;28;20539;-80
2021/07/02 03:05:59;;;;;;;14.00;11.60;;;;;;;;;;5016637;28;20470;-80
2021/07/02 03:08:25;;;;;;;12.90;11.50;;;;;;;;;;5000406;28;20431;-80
2021/07/02 03:10:51;;;;;;;11.50;10.30;;;;;;;;;;5000155;28;20187;-80
2021/07/02 03:13:17;;;;;;;12.25;10.65;;;;;;;;;;5000850;28;20191;-80
2021/07/02 03:15:43;;;;;;;11.87;10.57;;;;;;;;;;4999821;28;20400;-80
2021/07/02 03:18:09;;;;;;;14.68;11.70;;;;;;;;;;5016401;28;20426;-79
2021/07/02 03:20:35;;;;;;;11.55;10.45;;;;;;;;;;5004558;28;20190;-80
2021/07/02 03:23:01;;;;;;;14.32;11.35;;;;;;;;;;5000420;28;20270;-79
2021/07/02 03:25:27;;;;;;;15.50;11.53;;;;;;;;;;4999795;28;20672;-80
2021/07/02 03:27:54;;;;;;;12.18;10.93;;;;;;;;;;5001356;28;20506;-80
2021/07/02 03:30:20;;;;;;;13.02;11.30;;;;;;;;;;5016021;28;20187;-80
2021/07/02 03:32:46;;;;;;;12.68;11.35;;;;;;;;;;5018344;28;20628;-80
2021/07/02 03:35:12;;;;;;;14.27;12.80;;;;;;;;;;5002302;28;20171;-80
2021/07/02 03:37:38;;;;;;;12.15;10.85;;;;;;;;;;4999811;28;20286;-80
2021/07/02 03:40:06;;;;;;;12.68;11.20;;;;;;;;;;5000959;28;20341;-80
2021/07/02 03:42:32;;;;;;;13.15;11.80;;;;;;;;;;4999840;28;20198;-81
2021/07/02 03:44:58;;;;;;;12.55;11.25;;;;;;;;;;5000812;28;20214;-81
2021/07/02 03:47:24;;;;;;;12.60;10.53;;;;;;;;;;5003533;28;20186;-80
2021/07/02 03:49:50;;;;;;;13.57;11.17;;;;;;;;;;5015405;28;20481;-80
2021/07/02 03:52:16;;;;;;;12.80;10.77;;;;;;;;;;5015337;28;20447;-80
2021/07/02 03:54:42;;;;;;;13.00;10.83;;;;;;;;;;4997901;28;20195;-80
2021/07/02 03:57:28;;;;;;;13.23;11.82;;;;;;;;;;5000284;28;20438;-80
2021/07/02 03:59:54;;;;;;;14.27;11.63;;;;;;;;;;5007075;28;20194;-80
2021/07/02 04:02:20;;;;;;;13.73;12.43;;;;;;;;;;5001271;28;20190;-81
2021/07/02 04:04:48;;;;;;;12.40;11.20;;;;;;;;;;4999974;28;20477;-80
2021/07/02 04:07:16;;;;;;;18.20;12.20;;;;;;;;;;4999399;28;20649;-80
2021/07/02 04:09:42;;;;;;;13.18;11.88;;;;;;;;;;4999005;28;20209;-81
2021/07/02 04:12:08;;;;;;;14.73;13.23;;;;;;;;;;5016115;28;20275;-80
2021/07/02 04:14:35;;;;;;;12.55;10.93;;;;;;;;;;5018738;28;20985;-80
2021/07/02 04:17:01;;;;;;;14.52;13.05;;;;;;;;;;4999452;28;20179;-81
2021/07/02 04:19:27;;;;;;;14.90;13.27;;;;;;;;;;4998791;28;20197;-80
2021/07/02 04:21:53;;;;;;;15.35;13.20;;;;;;;;;;5001071;28;20214;-80
2021/07/02 04:24:19;;;;;;;16.50;12.65;;;;;;;;;;5018384;28;20270;-80
2021/07/02 04:26:45;;;;;;;13.93;11.43;;;;;;;;;;5021990;28;20179;-80
2021/07/02 04:29:11;;;;;;;16.92;14.10;;;;;;;;;;5004960;28;20221;-80
2021/07/02 04:31:38;;;;;;;15.30;13.70;;;;;;;;;;5002349;28;20190;-80
2021/07/02 04:34:04;;;;;;;14.93;13.07;;;;;;;;;;5018610;28;20446;-80
2021/07/02 04:36:30;;;;;;;12.90;11.60;;;;;;;;;;5019370;28;20210;-80
2021/07/02 04:38:57;;;;;;;15.18;13.57;;;;;;;;;;5000419;28;20236;-79
2021/07/02 04:41:23;;;;;;;16.15;13.07;;;;;;;;;;5005365;28;20179;-80
2021/07/02 04:43:50;;;;;;;16.88;12.75;;;;;;;;;;5018646;28;20688;-80
2021/07/02 04:46:16;;;;;;;16.05;13.73;;;;;;;;;;5001642;28;20179;-80
2021/07/02 04:48:42;;;;;;;17.13;13.37;;;;;;;;;;5002862;28;20678;-80
2021/07/02 04:51:08;;;;;;;15.45;13.70;;;;;;;;;;5004493;28;20533;-80
2021/07/02 04:53:34;;;;;;;17.85;13.85;;;;;;;;;;5007218;28;20187;-80
2021/07/02 04:56:00;;;;;;;15.13;13.32;;;;;;;;;;5003288;28;20175;-80
2021/07/02 04:58:26;;;;;;;15.93;14.32;;;;;;;;;;5002706;28;20179;-81
2021/07/02 05:00:52;;;;;;;18.23;14.10;;;;;;;;;;5002197;28;20400;-81
2021/07/02 05:03:18;;;;;;;18.98;14.43;;;;;;;;;;5004110;28;20190;-81
2021/07/02 05:05:44;;;;;;;16.40;14.70;;;;;;;;;;5006118;28;20198;-81
2021/07/02 05:08:11;;;;;;;17.90;14.93;;;;;;;;;;5003799;28;20633;-80
2021/07/02 05:10:37;;;;;;;15.20;13.63;;;;;;;;;;5002883;28;20442;-80
2021/07/02 05:13:03;;;;;;;16.63;14.80;;;;;;;;;;4999362;28;20199;-81
2021/07/02 05:15:30;;;;;;;16.90;15.18;;;;;;;;;;5016257;28;20219;-80
2021/07/02 05:17:56;;;;;;;18.55;16.30;;;;;;;;;;5013998;28;20262;-80
2021/07/02 05:20:22;;;;;;;20.27;15.75;;;;;;;;;;5003851;28;20210;-80
2021/07/02 05:22:48;;;;;;;16.98;15.18;;;;;;;;;;5002254;28;20195;-80
2021/07/02 05:25:14;;;;;;;16.30;14.52;;;;;;;;;;5001902;28;20230;-80
2021/07/02 05:27:41;;;;;;;17.23;14.70;;;;;;;;;;5002222;28;20594;-81
2021/07/02 05:30:07;;;;;;;16.27;14.20;;;;;;;;;;5016394;28;20175;-80
2021/07/02 05:32:34;;;;;;;18.55;15.57;;;;;;;;;;5004802;28;20186;-81
2021/07/02 05:35:00;;;;;;;17.77;15.88;;;;;;;;;;5001454;28;20179;-81
2021/07/02 05:37:26;;;;;;;18.87;16.87;;;;;;;;;;5020047;28;20254;-80
2021/07/02 05:39:52;;;;;;;18.85;16.98;;;;;;;;;;5012006;28;20438;-80
2021/07/02 05:42:22;;;;;;;17.63;14.73;;;;;;;;;;5018629;28;20217;-81
2021/07/02 05:44:48;;;;;;;19.35;15.98;;;;;;;;;;5002941;28;20194;-80
2021/07/02 05:47:14;;;;;;;23.42;18.45;;;;;;;;;;5003795;28;20282;-81
2021/07/02 05:49:40;;;;;;;17.83;15.52;;;;;;;;;;5000011;28;20190;-81
2021/07/02 05:52:06;;;;;;;17.70;15.80;;;;;;;;;;5000838;28;20179;-80
2021/07/02 05:54:32;;;;;;;17.65;15.82;;;;;;;;;;5000473;28;20412;-81
2021/07/02 05:56:58;;;;;;;18.95;15.48;;;;;;;;;;5002249;28;20183;-81
2021/07/02 05:59:24;;;;;;;16.80;15.00;;;;;;;;;;5003135;28;20212;-81
2021/07/02 06:01:50;;;;;;;19.10;16.23;;;;;;;;;;5001195;28;20449;-81
2021/07/02 06:04:16;;;;;;;19.07;15.70;;;;;;;;;;5000900;28;20993;-80
2021/07/02 06:06:47;;;;;;;19.50;15.73;;;;;;;;;;5002427;28;20418;-81
2021/07/02 06:09:13;;;;;;;19.02;16.40;;;;;;;;;;5001606;28;20550;-81
2021/07/02 06:11:39;;;;;;;17.10;15.35;;;;;;;;;;5003643;28;20180;-81
2021/07/02 06:14:05;;;;;;;18.63;16.63;;;;;;;;;;5002195;28;20641;-81
2021/07/02 06:16:31;;;;;;;21.87;17.43;;;;;;;;;;4958559;28;1208029;-81
2021/07/02 06:18:57;;;;;;;18.08;15.68;;;;;;;;;;4998349;28;20252;-81
2021/07/02 06:21:23;;;;;;;19.17;16.37;;;;;;;;;;5015642;28;20183;-81
2021/07/02 06:23:49;;;;;;;17.30;15.00;;;;;;;;;;5004259;28;20477;-81
2021/07/02 06:26:15;;;;;;;17.00;15.00;;;;;;;;;;5000967;28;20180;-81
2021/07/02 06:28:41;;;;;;;18.53;16.53;;;;;;;;;;5001602;28;20460;-81
2021/07/02 06:31:07;;;;;;;17.63;15.60;;;;;;;;;;5002443;28;20441;-81
2021/07/02 06:33:33;;;;;;;20.88;16.15;;;;;;;;;;5002373;28;20416;-81
2021/07/02 06:35:59;;;;;;;23.13;15.35;;;;;;;;;;5021247;28;20183;-80
2021/07/02 06:38:25;;;;;;;17.80;15.60;;;;;;;;;;5003828;28;20234;-80
2021/07/02 06:40:52;;;;;;;16.27;14.45;;;;;;;;;;5016641;28;20414;-81
2021/07/02 06:43:18;;;;;;;16.13;14.10;;;;;;;;;;5015561;28;20358;-81
2021/07/02 06:45:44;;;;;;;16.80;14.90;;;;;;;;;;5015830;28;20353;-81
2021/07/02 06:48:10;;;;;;;19.37;15.53;;;;;;;;;;5014020;28;20399;-81
2021/07/02 06:50:37;;;;;;;18.63;16.73;;;;;;;;;;5014346;28;20432;-80
2021/07/02 06:53:04;;;;;;;17.90;16.00;;;;;;;;;;5001508;28;20175;-81
2021/07/02 06:55:31;;;;;;;16.92;14.90;;;;;;;;;;5015424;28;20189;-80
2021/07/02 06:57:56;;;;;;;17.92;15.60;;;;;;;;;;5015048;28;20203;-81
2021/07/02 07:00:23;;;;;;;19.13;15.93;;;;;;;;;;5000700;28;20186;-80
2021/07/02 07:02:49;;;;;;;16.77;14.93;;;;;;;;;;5002922;28;20418;-81
2021/07/02 07:05:16;;;;;;;16.75;13.68;;;;;;;;;;5002590;28;20208;-80
2021/07/02 07:07:42;;;;;;;16.90;15.10;;;;;;;;;;5012486;28;20534;-80
2021/07/02 07:10:09;;;;;;;18.10;15.50;;;;;;;;;;5012585;28;20189;-79
2021/07/02 07:12:35;;;;;;;16.17;14.18;;;;;;;;;;5001161;28;20723;-81
2021/07/02 07:15:01;;;;;;;15.43;13.80;;;;;;;;;;4999357;28;20226;-80
2021/07/02 07:17:27;;;;;;;16.60;14.90;;;;;;;;;;5003689;28;20220;-80
2021/07/02 07:19:53;;;;;;;17.30;13.77;;;;;;;;;;5016721;28;20189;-80
2021/07/02 07:22:19;;;;;;;18.93;14.37;;;;;;;;;;5000971;28;20184;-80
2021/07/02 07:24:45;;;;;;;16.53;14.10;;;;;;;;;;4999600;28;20451;-80
2021/07/02 07:27:11;;;;;;;18.58;14.85;;;;;;;;;;5017729;28;20411;-80
2021/07/02 07:29:38;;;;;;;16.70;14.23;;;;;;;;;;5018932;28;20213;-80
2021/07/02 07:32:04;;;;;;;15.82;14.00;;;;;;;;;;5001588;28;20177;-79
2021/07/02 07:37:11;;;;;;;13.00;11.20;;;;;;;;;;5000744;28;20189;-80
2021/07/02 07:39:37;;;;;;;13.80;12.40;;;;;;;;;;5017012;28;20189;-80
2021/07/02 07:42:04;;;;;;;13.00;11.60;;;;;;;;;;5000795;28;20192;-80
2021/07/02 07:44:30;;;;;;;17.02;12.65;;;;;;;;;;5014962;28;20652;-80
2021/07/02 07:46:56;;;;;;;14.15;12.18;;;;;;;;;;5015293;28;20187;-81
2021/07/02 07:49:23;;;;;;;13.73;11.80;;;;;;;;;;5016292;28;20181;-81
2021/07/02 07:51:54;;;;;;;15.13;13.60;;;;;;;;;;5000632;28;20733;-80
2021/07/02 07:54:20;;;;;;;15.43;13.45;;;;;;;;;;5014316;28;20190;-82
2021/07/02 07:56:53;;;;;;;15.20;13.60;;;;;;;;;;5016826;28;20210;-83
2021/07/02 07:59:20;;;;;;;12.95;11.60;;;;;;;;;;5003185;28;20171;-82
2021/07/02 08:01:46;;;;;;;16.70;13.88;;;;;;;;;;5011329;28;20532;-82
2021/07/02 08:04:14;;;;;;;13.18;11.85;;;;;;;;;;5008743;28;20214;-82
2021/07/02 08:06:41;;;;;;;16.42;13.70;;;;;;;;;;4990205;28;20229;-82
2021/07/02 08:09:07;;;;;;;15.20;12.70;;;;;;;;;;5015359;28;20189;-81
2021/07/02 08:11:33;;;;;;;13.45;11.75;;;;;;;;;;5004310;28;20194;-82
2021/07/02 08:13:59;;;;;;;12.73;11.40;;;;;;;;;;5000988;28;20255;-82
2021/07/02 08:16:25;;;;;;;14.20;12.63;;;;;;;;;;5010994;28;20245;-82
2021/07/02 08:18:51;;;;;;;12.30;11.10;;;;;;;;;;5000301;28;20225;-82
2021/07/02 08:21:17;;;;;;;13.32;11.95;;;;;;;;;;5015673;28;20419;-82
2021/07/02 08:23:44;;;;;;;12.10;10.90;;;;;;;;;;5017441;28;20195;-82
2021/07/02 08:26:10;;;;;;;12.27;11.07;;;;;;;;;;5000018;28;20396;-82
2021/07/02 08:31:20;;;;;;;13.10;10.87;;;;;;;;;;5000459;28;20467;-81
2021/07/02 08:33:46;;;;;;;12.67;10.80;;;;;;;;;;4997625;28;20445;-80
2021/07/02 08:36:12;;;;;;;14.97;11.13;;;;;;;;;;4998329;28;20436;-81
2021/07/02 08:38:38;;;;;;;15.23;12.40;;;;;;;;;;4996212;28;20401;-80
2021/07/02 08:41:07;;;;;;;11.77;10.57;;;;;;;;;;4999913;28;20422;-80
2021/07/02 08:43:33;;;;;;;9.90;9.00;;;;;;;;;;4998199;28;20472;-81
2021/07/02 08:45:59;;;;;;;12.53;11.33;;;;;;;;;;5014859;28;20428;-82
2021/07/02 08:48:26;;;;;;;10.03;9.13;;;;;;;;;;5015291;28;20449;-82
2021/07/02 08:50:53;;;;;;;10.30;9.00;;;;;;;;;;5002321;28;20441;-82
2021/07/02 08:53:19;;;;;;;10.10;9.10;;;;;;;;;;4997084;28;20441;-81
2021/07/02 08:55:45;;;;;;;9.47;8.53;;;;;;;;;;4998785;28;20480;-82
2021/07/02 08:58:15;;;;;;;8.87;8.17;;;;;;;;;;4997996;28;20449;-81
2021/07/02 09:00:41;;;;;;;9.07;8.27;;;;;;;;;;5003279;28;20462;-82
2021/07/02 09:03:25;;;;;;;8.50;7.80;;;;;;;;;;5015004;28;20412;-81
2021/07/02 09:05:52;;;;;;;9.90;8.90;;;;;;;;;;4999262;28;20844;-83
2021/07/02 09:08:19;;;;;;;7.33;6.60;;;;;;;;;;5001217;28;20429;-81
2021/07/02 09:10:45;;;;;;;9.33;7.87;;;;;;;;;;5015365;28;20797;-82
2021/07/02 09:13:12;;;;;;;7.50;6.77;;;;;;;;;;4995752;28;20430;-80
2021/07/02 09:15:45;;;;;;;6.07;5.47;;;;;;;;;;5002911;28;20471;-81
2021/07/02 09:18:12;;;;;;;6.77;6.10;;;;;;;;;;5018044;28;20650;-81
2021/07/02 09:20:40;;;;;;;6.93;6.23;;;;;;;;;;5006459;28;20389;-82
2021/07/02 09:23:07;;;;;;;9.23;7.70;;;;;;;;;;5003107;28;20408;-81
2021/07/02 09:25:40;;;;;;;7.77;6.50;;;;;;;;;;5018189;28;20489;-82
2021/07/02 09:28:08;;;;;;;8.47;7.67;;;;;;;;;;5017972;28;20460;-82
2021/07/02 09:30:35;;;;;;;8.43;7.43;;;;;;;;;;5003176;28;20438;-82
2021/07/02 09:33:03;;;;;;;8.73;7.23;;;;;;;;;;5013264;28;21026;-81
2021/07/02 09:35:32;;;;;;;9.17;8.30;;;;;;;;;;5017474;28;20400;-81
2021/07/02 09:37:59;;;;;;;9.90;8.17;;;;;;;;;;5001440;28;20413;-82
2021/07/02 09:40:27;;;;;;;9.60;8.70;;;;;;;;;;5003365;28;20408;-81
2021/07/02 09:43:02;;;;;;;8.87;8.07;;;;;;;;;;5003221;28;20470;-79
2021/07/02 09:45:28;;;;;;;8.57;7.77;;;;;;;;;;5002561;28;20472;-81
2021/07/02 09:47:55;;;;;;;8.47;7.67;;;;;;;;;;5004373;28;20448;-81
2021/07/02 09:50:28;;;;;;;8.03;7.27;;;;;;;;;;5008850;28;20458;-79
2021/07/02 09:53:01;;;;;;;10.90;7.20;;;;;;;;;;4999220;28;20434;-80
2021/07/02 09:55:32;;;;;;;7.93;7.13;;;;;;;;;;5018488;28;20951;-82
2021/07/02 09:58:08;;;;;;;8.03;7.30;;;;;;;;;;5014595;28;20416;-83
2021/07/02 10:00:38;;;;;;;8.03;7.33;;;;;;;;;;5000382;28;20484;-84
2021/07/02 10:03:06;;;;;;;7.70;6.90;;;;;;;;;;5001110;28;20472;-83
2021/07/02 10:05:43;;;;;;;6.83;6.13;;;;;;;;;;5021000;28;20524;-80
2021/07/02 10:08:09;;;;;;;9.10;6.50;;;;;;;;;;4998283;28;20408;-79
2021/07/02 10:10:35;;;;;;;7.27;6.40;;;;;;;;;;4999908;28;20473;-80
2021/07/02 10:13:01;;;;;;;7.57;7.00;;;;;;;;;;5000701;28;20437;-82
2021/07/02 10:15:27;;;;;;;8.80;8.00;;;;;;;;;;5001862;28;20516;-80
2021/07/02 10:17:57;;;;;;;7.17;6.50;;;;;;;;;;5003182;28;20580;-82
2021/07/02 10:20:24;;;;;;;7.47;6.70;;;;;;;;;;5003607;28;20430;-81
2021/07/02 10:22:51;;;;;;;8.60;6.50;;;;;;;;;;5002274;28;20446;-80
2021/07/02 10:25:18;;;;;;;6.83;6.20;;;;;;;;;;4999366;28;20467;-80
2021/07/02 10:27:45;;;;;;;7.07;6.40;;;;;;;;;;5016933;28;20437;-80
2021/07/02 10:30:11;;;;;;;6.97;6.37;;;;;;;;;;5011448;28;20857;-81
2021/07/02 10:32:38;;;;;;;6.27;5.67;;;;;;;;;;5003136;28;20457;-81
2021/07/02 10:35:04;;;;;;;7.80;6.70;;;;;;;;;;5003961;28;20816;-81
2021/07/02 10:37:31;;;;;;;7.87;6.17;;;;;;;;;;4998056;28;20430;-81
2021/07/02 10:39:59;;;;;;;6.67;6.07;;;;;;;;;;5016871;28;20439;-80
2021/07/02 10:42:26;;;;;;;6.50;5.90;;;;;;;;;;5016898;28;20534;-80
2021/07/02 10:44:51;;;;;;;7.87;6.50;;;;;;;;;;5016921;28;20458;-81
2021/07/02 10:47:17;;;;;;;6.10;5.43;;;;;;;;;;5003262;28;20857;-81
2021/07/02 10:49:44;;;;;;;6.00;5.50;;;;;;;;;;5018125;28;20432;-81
2021/07/02 10:52:22;;;;;;;6.10;5.60;;;;;;;;;;5002483;28;20439;-80
2021/07/02 10:54:49;;;;;;;6.73;6.13;;;;;;;;;;5015324;28;20461;-81
2021/07/02 10:57:19;;;;;;;5.63;5.10;;;;;;;;;;5014210;28;20506;-81
2021/07/02 10:59:52;;;;;;;6.30;5.80;;;;;;;;;;5002742;28;20462;-81
2021/07/02 11:02:19;;;;;;;6.17;5.70;;;;;;;;;;5001780;28;20449;-80
2021/07/02 11:04:52;;;;;;;8.43;6.40;;;;;;;;;;5000630;28;20472;-80
2021/07/02 11:07:27;;;;;;;5.90;5.40;;;;;;;;;;5015826;28;20438;-82
2021/07/02 11:09:54;;;;;;;6.50;6.00;;;;;;;;;;5014146;28;20445;-80
2021/07/02 11:12:20;;;;;;;6.33;5.77;;;;;;;;;;5001962;28;20457;-80
2021/07/02 11:15:02;;;;;;;6.43;5.93;;;;;;;;;;5017929;28;20448;-80
2021/07/02 11:17:44;;;;;;;6.37;5.77;;;;;;;;;;5002377;28;20451;-80
2021/07/02 11:20:11;;;;;;;6.50;5.40;;;;;;;;;;5000242;28;20910;-80
2021/07/02 11:22:37;;;;;;;6.00;5.40;;;;;;;;;;5001151;28;20437;-81
2021/07/02 11:25:08;;;;;;;6.03;5.53;;;;;;;;;;4997240;28;20497;-79
2021/07/02 11:27:39;;;;;;;6.33;5.73;;;;;;;;;;5015034;28;20452;-80
2021/07/02 11:30:09;;;;;;;5.80;5.30;;;;;;;;;;4995045;28;20566;-79
2021/07/02 11:32:35;;;;;;;5.97;5.27;;;;;;;;;;5018320;28;20430;-79
2021/07/02 11:35:20;;;;;;;5.70;5.07;;;;;;;;;;5001334;28;20418;-81
2021/07/02 11:37:59;;;;;;;7.73;4.93;;;;;;;;;;4999412;28;20434;-80
2021/07/02 11:40:29;;;;;;;5.00;4.60;;;;;;;;;;5001893;28;20485;-81
2021/07/02 11:42:56;;;;;;;5.73;5.23;;;;;;;;;;4999339;28;20516;-81
2021/07/02 11:45:36;;;;;;;7.77;5.57;;;;;;;;;;5001911;28;20469;-79
2021/07/02 11:48:02;;;;;;;5.60;5.20;;;;;;;;;;5012845;28;20444;-81
2021/07/02 11:50:44;;;;;;;4.70;4.30;;;;;;;;;;5002606;28;20437;-81
2021/07/02 11:53:29;;;;;;;4.97;4.57;;;;;;;;;;5016907;28;20439;-81
2021/07/02 11:56:04;;;;;;;5.07;4.67;;;;;;;;;;5002522;28;20946;-81
2021/07/02 11:58:31;;;;;;;5.83;5.33;;;;;;;;;;5015866;28;20451;-80
2021/07/02 12:00:58;;;;;;;5.13;4.73;;;;;;;;;;5001869;28;20459;-81
2021/07/02 12:03:25;;;;;;;5.20;4.70;;;;;;;;;;5016916;28;20440;-81
2021/07/02 12:06:01;;;;;;;4.90;4.50;;;;;;;;;;5014930;28;20438;-82
2021/07/02 12:08:28;;;;;;;5.00;4.60;;;;;;;;;;5001545;28;20422;-83
2021/07/02 12:11:05;;;;;;;5.10;4.70;;;;;;;;;;5012061;28;20484;-81
2021/07/02 12:13:32;;;;;;;5.57;3.80;;;;;;;;;;5015009;28;20457;-81
2021/07/02 12:15:59;;;;;;;4.70;4.23;;;;;;;;;;5013657;28;20470;-80
2021/07/02 12:18:25;;;;;;;5.83;5.13;;;;;;;;;;4998797;28;20510;-80
2021/07/02 12:21:02;;;;;;;4.80;4.40;;;;;;;;;;5001812;28;20477;-80
2021/07/02 12:23:29;;;;;;;4.17;3.87;;;;;;;;;;4998395;28;20434;-81
2021/07/02 12:26:10;;;;;;;4.87;4.37;;;;;;;;;;5007768;28;20477;-80
2021/07/02 12:28:57;;;;;;;5.00;4.40;;;;;;;;;;4996952;28;20459;-80
2021/07/02 12:31:25;;;;;;;4.47;4.17;;;;;;;;;;4999451;28;20448;-81
2021/07/02 12:33:51;;;;;;;4.80;4.50;;;;;;;;;;5001891;28;20449;-81
2021/07/02 12:36:17;;;;;;;4.97;4.10;;;;;;;;;;4998190;28;20456;-81
2021/07/02 12:38:58;;;;;;;9.30;4.20;;;;;;;;;;5010571;28;20435;-81
2021/07/02 12:41:24;;;;;;;4.80;4.40;;;;;;;;;;5002093;28;20528;-82
2021/07/02 12:43:50;;;;;;;5.73;5.23;;;;;;;;;;5001013;28;20530;-81
2021/07/02 12:46:16;;;;;;;4.33;3.93;;;;;;;;;;5018596;28;21018;-81
2021/07/02 12:48:43;;;;;;;4.80;4.40;;;;;;;;;;5001468;28;20438;-81
2021/07/02 12:51:10;;;;;;;5.73;5.10;;;;;;;;;;5014807;28;20446;-81
2021/07/02 12:56:21;;;;;;;4.50;4.20;;;;;;;;;;5006755;28;20458;-81
2021/07/02 12:58:47;;;;;;;4.67;4.37;;;;;;;;;;5018174;28;20969;-81
2021/07/02 13:01:13;;;;;;;4.70;4.30;;;;;;;;;;5002844;28;20522;-81
2021/07/02 13:03:39;;;;;;;4.17;3.87;;;;;;;;;;5003689;28;20896;-81
2021/07/02 13:06:16;;;;;;;4.23;3.93;;;;;;;;;;5018565;28;20434;-81
2021/07/02 13:08:42;;;;;;;4.20;3.90;;;;;;;;;;5005706;28;20422;-79
2021/07/02 13:11:21;;;;;;;4.97;4.57;;;;;;;;;;5005133;28;20922;-81
2021/07/02 13:13:47;;;;;;;5.13;4.73;;;;;;;;;;5017756;28;20453;-81
2021/07/02 13:16:13;;;;;;;5.13;4.63;;;;;;;;;;5001508;28;20480;-81
2021/07/02 13:18:39;;;;;;;4.77;4.33;;;;;;;;;;5001836;28;20449;-80
2021/07/02 13:21:05;;;;;;;4.33;4.03;;;;;;;;;;5013673;28;20441;-79
2021/07/02 13:23:32;;;;;;;5.37;4.90;;;;;;;;;;5021914;28;20446;-81
2021/07/02 13:26:05;;;;;;;5.20;4.80;;;;;;;;;;5016592;28;20445;-81
2021/07/02 13:28:32;;;;;;;4.53;4.23;;;;;;;;;;5001491;28;20432;-81
2021/07/02 13:30:58;;;;;;;5.30;4.80;;;;;;;;;;5002026;28;20510;-81
2021/07/02 13:33:24;;;;;;;5.30;4.90;;;;;;;;;;5001639;28;20472;-79
2021/07/02 13:35:50;;;;;;;4.50;4.20;;;;;;;;;;5018074;28;20455;-79
2021/07/02 13:38:18;;;;;;;4.60;4.20;;;;;;;;;;5003758;28;20421;-81
2021/07/02 13:40:48;;;;;;;4.30;3.90;;;;;;;;;;5000215;28;20968;-81
2021/07/02 13:43:21;;;;;;;5.33;4.83;;;;;;;;;;4997358;28;20464;-80
2021/07/02 13:46:01;;;;;;;5.27;4.77;;;;;;;;;;5009707;28;20512;-79
2021/07/02 13:48:27;;;;;;;4.80;4.40;;;;;;;;;;5017813;28;20436;-81
2021/07/02 13:50:53;;;;;;;5.37;4.90;;;;;;;;;;5002813;28;20428;-79
2021/07/02 13:53:20;;;;;;;4.13;3.83;;;;;;;;;;5004391;28;20489;-80
2021/07/02 13:55:48;;;;;;;5.07;4.67;;;;;;;;;;5013240;28;20569;-79
2021/07/02 13:58:14;;;;;;;5.97;4.50;;;;;;;;;;5000179;28;20463;-78
2021/07/02 14:00:41;;;;;;;5.00;4.60;;;;;;;;;;5015599;28;20442;-79
2021/07/02 14:03:07;;;;;;;5.87;5.30;;;;;;;;;;5015107;28;20445;-79
2021/07/02 14:05:34;;;;;;;4.90;3.90;;;;;;;;;;5016612;28;20541;-80
2021/07/02 14:08:00;;;;;;;5.10;4.70;;;;;;;;;;5001054;28;20436;-80
2021/07/02 14:10:27;;;;;;;3.93;3.63;;;;;;;;;;5018276;28;20441;-79
2021/07/02 14:12:53;;;;;;;4.90;4.40;;;;;;;;;;5000535;28;20455;-80
2021/07/02 14:15:20;;;;;;;5.20;4.70;;;;;;;;;;5014418;28;20478;-79
2021/07/02 14:17:46;;;;;;;5.53;4.83;;;;;;;;;;5014729;28;20457;-80
2021/07/02 14:20:12;;;;;;;4.90;4.40;;;;;;;;;;5003437;28;20702;-78
2021/07/02 14:22:43;;;;;;;4.90;4.60;;;;;;;;;;5004256;28;20441;-78
2021/07/02 14:25:09;;;;;;;4.70;4.30;;;;;;;;;;5000128;28;21089;-79
2021/07/02 14:27:35;;;;;;;4.80;4.40;;;;;;;;;;5002656;28;20469;-79
2021/07/02 14:30:02;;;;;;;5.47;5.00;;;;;;;;;;5014798;28;20442;-80
2021/07/02 14:32:28;;;;;;;5.40;4.90;;;;;;;;;;5010990;28;20465;-79
2021/07/02 14:34:54;;;;;;;4.60;4.20;;;;;;;;;;5003379;28;20442;-79
2021/07/02 14:37:20;;;;;;;4.50;4.10;;;;;;;;;;5013826;28;20449;-80